KGYB

Giddings-Lee County Airport

Giddings, Texas, USA
METAR KGYB 231615Z AUTO 03003KT 1/4SM FG OVC001 08/08 A3018 RMK AO2 T00760075
Observed Flight Rules
Feb-23 @ 16:15 UTC (24 minutes ago) Instrument Flight Rules
Wind Visibility Clouds Conditions
30° at 3 knots 1/4 miles
  • Overcast at 100' AGL
  • Fog
Temperatures Readings
Current 8°C / 46°F
Dewpoint 8°C / 46°F
Humidity 100%
Altimeter 30.18" Hg
Pressure 1022 hPa
Elevation 148
METAR KGYB 231615Z AUTO 03003KT 1/4SM FG OVC001 08/08 A3018 RMK AO2 T00760075
Observed Flight Rules
Feb-23 @ 16:15 UTC
(24 minutes ago)
LIFR
Wind Visibility
30° at 3 knots 1/4 miles
Clouds
  • Overcast at 100' AGL
Conditions
  • Fog
Temperature Dewpoint
8°C / 46°F 8°C / 46°F
Humidity Altimeter Pressure
100% 30.18" Hg 1022 hPa